sensor_id;sensor_type;location;lat;lon;timestamp;temperature;humidity
50989;DHT22;37008;52.210;21.112;2023-05-14T00:01:17;6.80;99.90
50989;DHT22;37008;52.210;21.112;2023-05-14T00:03:43;6.80;99.90
50989;DHT22;37008;52.210;21.112;2023-05-14T00:06:08;6.70;99.90
50989;DHT22;37008;52.210;21.112;2023-05-14T00:08:35;6.70;99.90
50989;DHT22;37008;52.210;21.112;2023-05-14T00:11:01;6.60;99.90
50989;DHT22;37008;52.210;21.112;2023-05-14T00:13:26;6.60;99.90
50989;DHT22;37008;52.210;21.112;2023-05-14T00:15:52;6.60;99.90
50989;DHT22;37008;52.210;21.112;2023-05-14T00:18:18;6.60;99.90
50989;DHT22;37008;52.210;21.112;2023-05-14T00:20:43;6.50;99.90
50989;DHT22;37008;52.210;21.112;2023-05-14T00:23:09;6.50;99.90
50989;DHT22;37008;52.210;21.112;2023-05-14T00:25:35;6.50;99.90
50989;DHT22;37008;52.210;21.112;2023-05-14T00:28:01;6.40;99.90
50989;DHT22;37008;52.210;21.112;2023-05-14T00:30:27;6.30;99.90
50989;DHT22;37008;52.210;21.112;2023-05-14T00:32:53;6.30;99.90
50989;DHT22;37008;52.210;21.112;2023-05-14T00:35:18;6.20;99.90
50989;DHT22;37008;52.210;21.112;2023-05-14T00:37:45;6.20;99.90
50989;DHT22;37008;52.210;21.112;2023-05-14T00:40:11;6.20;99.90
50989;DHT22;37008;52.210;21.112;2023-05-14T00:42:38;6.20;99.90
50989;DHT22;37008;52.210;21.112;2023-05-14T00:45:05;6.10;99.90
50989;DHT22;37008;52.210;21.112;2023-05-14T00:47:31;6.00;99.90
50989;DHT22;37008;52.210;21.112;2023-05-14T00:49:59;6.00;99.90
50989;DHT22;37008;52.210;21.112;2023-05-14T00:52:25;6.00;99.90
50989;DHT22;37008;52.210;21.112;2023-05-14T00:54:51;5.90;99.90
50989;DHT22;37008;52.210;21.112;2023-05-14T00:57:18;5.90;99.90
50989;DHT22;37008;52.210;21.112;2023-05-14T00:59:44;5.80;99.90
50989;DHT22;37008;52.210;21.112;2023-05-14T01:02:10;5.80;99.90
50989;DHT22;37008;52.210;21.112;2023-05-14T01:04:36;5.80;99.90
50989;DHT22;37008;52.210;21.112;2023-05-14T01:07:06;5.80;99.90
50989;DHT22;37008;52.210;21.112;2023-05-14T01:09:43;5.70;99.90
50989;DHT22;37008;52.210;21.112;2023-05-14T01:12:35;5.80;99.90
50989;DHT22;37008;52.210;21.112;2023-05-14T01:15:10;5.80;99.90
50989;DHT22;37008;52.210;21.112;2023-05-14T01:17:40;5.80;99.90
50989;DHT22;37008;52.210;21.112;2023-05-14T01:20:07;5.80;99.90
50989;DHT22;37008;52.210;21.112;2023-05-14T01:22:33;5.80;99.90
50989;DHT22;37008;52.210;21.112;2023-05-14T01:24:59;5.80;99.90
50989;DHT22;37008;52.210;21.112;2023-05-14T01:27:30;5.70;99.90
50989;DHT22;37008;52.210;21.112;2023-05-14T01:30:08;5.70;99.90
50989;DHT22;37008;52.210;21.112;2023-05-14T01:32:38;5.60;99.90
50989;DHT22;37008;52.210;21.112;2023-05-14T01:35:05;5.60;99.90
50989;DHT22;37008;52.210;21.112;2023-05-14T01:37:32;5.50;99.90
50989;DHT22;37008;52.210;21.112;2023-05-14T01:39:58;5.50;99.90
50989;DHT22;37008;52.210;21.112;2023-05-14T01:42:25;5.50;99.90
50989;DHT22;37008;52.210;21.112;2023-05-14T01:44:51;5.40;99.90
50989;DHT22;37008;52.210;21.112;2023-05-14T01:47:17;5.40;99.90
50989;DHT22;37008;52.210;21.112;2023-05-14T01:49:42;5.30;99.90
50989;DHT22;37008;52.210;21.112;2023-05-14T01:52:08;5.30;99.90
50989;DHT22;37008;52.210;21.112;2023-05-14T01:54:34;5.30;99.90
50989;DHT22;37008;52.210;21.112;2023-05-14T01:56:59;5.20;99.90
50989;DHT22;37008;52.210;21.112;2023-05-14T01:59:25;5.20;99.90
50989;DHT22;37008;52.210;21.112;2023-05-14T02:01:50;5.20;99.90
50989;DHT22;37008;52.210;21.112;2023-05-14T02:04:16;5.10;99.90
50989;DHT22;37008;52.210;21.112;2023-05-14T02:06:42;5.10;99.90
50989;DHT22;37008;52.210;21.112;2023-05-14T02:09:08;5.10;99.90
50989;DHT22;37008;52.210;21.112;2023-05-14T02:11:33;5.20;99.90
50989;DHT22;37008;52.210;21.112;2023-05-14T02:13:59;5.20;99.90
50989;DHT22;37008;52.210;21.112;2023-05-14T02:16:24;5.20;99.90
50989;DHT22;37008;52.210;21.112;2023-05-14T02:18:50;5.20;99.90
50989;DHT22;37008;52.210;21.112;2023-05-14T02:21:15;5.10;99.90
50989;DHT22;37008;52.210;21.112;2023-05-14T02:23:41;5.10;99.90
50989;DHT22;37008;52.210;21.112;2023-05-14T02:26:08;5.10;99.90
50989;DHT22;37008;52.210;21.112;2023-05-14T02:28:34;5.00;99.90
50989;DHT22;37008;52.210;21.112;2023-05-14T02:30:59;5.00;99.90
50989;DHT22;37008;52.210;21.112;2023-05-14T02:33:26;4.90;99.90
50989;DHT22;37008;52.210;21.112;2023-05-14T02:35:51;4.90;99.90
50989;DHT22;37008;52.210;21.112;2023-05-14T02:38:17;4.90;99.90
50989;DHT22;37008;52.210;21.112;2023-05-14T02:40:43;4.90;99.90
50989;DHT22;37008;52.210;21.112;2023-05-14T02:43:08;4.80;99.90
50989;DHT22;37008;52.210;21.112;2023-05-14T02:45:34;4.90;99.90
50989;DHT22;37008;52.210;21.112;2023-05-14T02:48:00;4.80;99.90
50989;DHT22;37008;52.210;21.112;2023-05-14T02:50:26;4.80;99.90
50989;DHT22;37008;52.210;21.112;2023-05-14T02:52:51;4.80;99.90
50989;DHT22;37008;52.210;21.112;2023-05-14T02:55:17;4.80;99.90
50989;DHT22;37008;52.210;21.112;2023-05-14T02:57:42;4.80;99.90
50989;DHT22;37008;52.210;21.112;2023-05-14T03:00:09;4.70;99.90
50989;DHT22;37008;52.210;21.112;2023-05-14T03:02:34;4.80;99.90
50989;DHT22;37008;52.210;21.112;2023-05-14T03:05:00;4.80;99.90
50989;DHT22;37008;52.210;21.112;2023-05-14T03:07:26;4.80;99.90
50989;DHT22;37008;52.210;21.112;2023-05-14T03:09:52;4.80;99.90
50989;DHT22;37008;52.210;21.112;2023-05-14T03:12:17;4.80;99.90
50989;DHT22;37008;52.210;21.112;2023-05-14T03:14:43;4.90;99.90
50989;DHT22;37008;52.210;21.112;2023-05-14T03:17:09;4.80;99.90
50989;DHT22;37008;52.210;21.112;2023-05-14T03:19:34;4.80;99.90
50989;DHT22;37008;52.210;21.112;2023-05-14T03:22:00;4.90;99.90
50989;DHT22;37008;52.210;21.112;2023-05-14T03:24:26;4.90;99.90
50989;DHT22;37008;52.210;21.112;2023-05-14T03:26:51;4.90;99.90
50989;DHT22;37008;52.210;21.112;2023-05-14T03:29:17;5.00;99.90
50989;DHT22;37008;52.210;21.112;2023-05-14T03:31:43;5.10;99.90
50989;DHT22;37008;52.210;21.112;2023-05-14T03:34:09;5.20;99.90
50989;DHT22;37008;52.210;21.112;2023-05-14T03:36:34;5.30;99.90
50989;DHT22;37008;52.210;21.112;2023-05-14T03:39:02;5.50;99.90
50989;DHT22;37008;52.210;21.112;2023-05-14T03:41:27;5.60;99.90
50989;DHT22;37008;52.210;21.112;2023-05-14T03:43:53;5.90;99.90
50989;DHT22;37008;52.210;21.112;2023-05-14T03:46:18;6.20;99.90
50989;DHT22;37008;52.210;21.112;2023-05-14T03:48:44;6.50;99.90
50989;DHT22;37008;52.210;21.112;2023-05-14T03:51:10;6.80;99.90
50989;DHT22;37008;52.210;21.112;2023-05-14T03:53:35;6.80;99.90
50989;DHT22;37008;52.210;21.112;2023-05-14T03:56:01;6.90;99.90
50989;DHT22;37008;52.210;21.112;2023-05-14T03:58:26;6.90;99.90
50989;DHT22;37008;52.210;21.112;2023-05-14T04:00:52;6.90;99.90
50989;DHT22;37008;52.210;21.112;2023-05-14T04:03:18;6.90;99.90
50989;DHT22;37008;52.210;21.112;2023-05-14T04:05:43;7.00;99.90
50989;DHT22;37008;52.210;21.112;2023-05-14T04:08:09;7.00;99.90
50989;DHT22;37008;52.210;21.112;2023-05-14T04:10:35;7.10;99.90
50989;DHT22;37008;52.210;21.112;2023-05-14T04:13:00;7.10;99.90
50989;DHT22;37008;52.210;21.112;2023-05-14T04:15:26;7.10;99.90
50989;DHT22;37008;52.210;21.112;2023-05-14T04:17:51;7.20;99.90
50989;DHT22;37008;52.210;21.112;2023-05-14T04:20:17;7.30;99.90
50989;DHT22;37008;52.210;21.112;2023-05-14T04:22:43;7.30;99.90
50989;DHT22;37008;52.210;21.112;2023-05-14T04:25:08;7.40;99.90
50989;DHT22;37008;52.210;21.112;2023-05-14T04:27:34;7.50;99.90
50989;DHT22;37008;52.210;21.112;2023-05-14T04:30:00;7.60;99.90
50989;DHT22;37008;52.210;21.112;2023-05-14T04:32:25;7.70;99.90
50989;DHT22;37008;52.210;21.112;2023-05-14T04:34:51;7.90;99.90
50989;DHT22;37008;52.210;21.112;2023-05-14T04:37:16;7.90;99.90
50989;DHT22;37008;52.210;21.112;2023-05-14T04:39:42;8.10;99.90
50989;DHT22;37008;52.210;21.112;2023-05-14T04:42:08;8.20;99.90
50989;DHT22;37008;52.210;21.112;2023-05-14T04:44:34;8.30;99.90
50989;DHT22;37008;52.210;21.112;2023-05-14T04:47:01;8.40;99.90
50989;DHT22;37008;52.210;21.112;2023-05-14T04:49:27;8.60;99.90
50989;DHT22;37008;52.210;21.112;2023-05-14T04:51:53;8.60;99.90
50989;DHT22;37008;52.210;21.112;2023-05-14T04:54:18;8.80;99.90
50989;DHT22;37008;52.210;21.112;2023-05-14T04:56:44;8.90;99.90
50989;DHT22;37008;52.210;21.112;2023-05-14T04:59:10;9.10;99.90
50989;DHT22;37008;52.210;21.112;2023-05-14T05:01:35;9.20;99.90
50989;DHT22;37008;52.210;21.112;2023-05-14T05:04:01;9.30;99.90
50989;DHT22;37008;52.210;21.112;2023-05-14T05:06:26;9.50;99.90
50989;DHT22;37008;52.210;21.112;2023-05-14T05:08:52;9.60;99.90
50989;DHT22;37008;52.210;21.112;2023-05-14T05:11:17;9.70;99.90
50989;DHT22;37008;52.210;21.112;2023-05-14T05:13:43;9.90;99.90
50989;DHT22;37008;52.210;21.112;2023-05-14T05:16:08;10.00;99.90
50989;DHT22;37008;52.210;21.112;2023-05-14T05:18:34;10.20;99.90
50989;DHT22;37008;52.210;21.112;2023-05-14T05:21:00;10.40;99.90
50989;DHT22;37008;52.210;21.112;2023-05-14T05:23:25;10.50;99.90
50989;DHT22;37008;52.210;21.112;2023-05-14T05:25:51;10.60;99.90
50989;DHT22;37008;52.210;21.112;2023-05-14T05:28:16;10.80;99.90
50989;DHT22;37008;52.210;21.112;2023-05-14T05:30:42;10.90;99.90
50989;DHT22;37008;52.210;21.112;2023-05-14T05:33:10;11.00;99.90
50989;DHT22;37008;52.210;21.112;2023-05-14T05:35:36;11.20;99.90
50989;DHT22;37008;52.210;21.112;2023-05-14T05:38:02;11.40;99.90
50989;DHT22;37008;52.210;21.112;2023-05-14T05:40:27;11.60;99.90
50989;DHT22;37008;52.210;21.112;2023-05-14T05:42:53;11.70;99.90
50989;DHT22;37008;52.210;21.112;2023-05-14T05:45:18;11.90;99.90
50989;DHT22;37008;52.210;21.112;2023-05-14T05:47:44;12.00;99.90
50989;DHT22;37008;52.210;21.112;2023-05-14T05:50:10;12.20;99.90
50989;DHT22;37008;52.210;21.112;2023-05-14T05:52:36;12.40;99.90
50989;DHT22;37008;52.210;21.112;2023-05-14T05:55:02;12.50;99.90
50989;DHT22;37008;52.210;21.112;2023-05-14T05:57:28;12.70;99.00
50989;DHT22;37008;52.210;21.112;2023-05-14T05:59:54;12.90;98.40
50989;DHT22;37008;52.210;21.112;2023-05-14T06:02:19;13.10;97.40
50989;DHT22;37008;52.210;21.112;2023-05-14T06:04:45;13.20;96.10
50989;DHT22;37008;52.210;21.112;2023-05-14T06:07:11;13.40;93.50
50989;DHT22;37008;52.210;21.112;2023-05-14T06:09:36;13.60;92.30
50989;DHT22;37008;52.210;21.112;2023-05-14T06:12:02;13.70;91.50
50989;DHT22;37008;52.210;21.112;2023-05-14T06:14:28;13.80;90.20
50989;DHT22;37008;52.210;21.112;2023-05-14T06:16:53;14.00;87.00
50989;DHT22;37008;52.210;21.112;2023-05-14T06:19:19;14.10;86.10
50989;DHT22;37008;52.210;21.112;2023-05-14T06:21:44;14.30;86.00
50989;DHT22;37008;52.210;21.112;2023-05-14T06:24:10;14.40;84.80
50989;DHT22;37008;52.210;21.112;2023-05-14T06:26:37;14.70;83.70
50989;DHT22;37008;52.210;21.112;2023-05-14T06:29:03;14.80;83.90
50989;DHT22;37008;52.210;21.112;2023-05-14T06:31:28;14.90;83.20
50989;DHT22;37008;52.210;21.112;2023-05-14T06:33:54;15.00;82.30
50989;DHT22;37008;52.210;21.112;2023-05-14T06:36:20;15.20;80.70
50989;DHT22;37008;52.210;21.112;2023-05-14T06:38:45;15.30;78.10
50989;DHT22;37008;52.210;21.112;2023-05-14T06:41:14;15.50;76.80
50989;DHT22;37008;52.210;21.112;2023-05-14T06:43:40;15.60;75.00
50989;DHT22;37008;52.210;21.112;2023-05-14T06:46:05;15.80;72.90
50989;DHT22;37008;52.210;21.112;2023-05-14T06:48:31;16.00;71.60
50989;DHT22;37008;52.210;21.112;2023-05-14T06:50:57;16.20;70.30
50989;DHT22;37008;52.210;21.112;2023-05-14T06:53:23;16.30;68.40
50989;DHT22;37008;52.210;21.112;2023-05-14T06:55:48;16.50;68.70
50989;DHT22;37008;52.210;21.112;2023-05-14T06:58:15;16.60;68.40
50989;DHT22;37008;52.210;21.112;2023-05-14T07:00:40;16.80;66.70
50989;DHT22;37008;52.210;21.112;2023-05-14T07:03:06;16.90;64.40
50989;DHT22;37008;52.210;21.112;2023-05-14T07:05:32;17.10;64.60
50989;DHT22;37008;52.210;21.112;2023-05-14T07:07:57;17.30;64.30
50989;DHT22;37008;52.210;21.112;2023-05-14T07:10:23;17.40;64.10
50989;DHT22;37008;52.210;21.112;2023-05-14T07:12:49;17.50;63.20
50989;DHT22;37008;52.210;21.112;2023-05-14T07:15:15;17.60;62.50
50989;DHT22;37008;52.210;21.112;2023-05-14T07:17:40;17.70;61.20
50989;DHT22;37008;52.210;21.112;2023-05-14T07:20:06;17.80;58.30
50989;DHT22;37008;52.210;21.112;2023-05-14T07:22:32;18.00;56.50
50989;DHT22;37008;52.210;21.112;2023-05-14T07:24:58;18.10;56.20
50989;DHT22;37008;52.210;21.112;2023-05-14T07:27:23;18.20;55.80
50989;DHT22;37008;52.210;21.112;2023-05-14T07:29:49;18.30;55.90
50989;DHT22;37008;52.210;21.112;2023-05-14T07:32:15;18.40;56.90
50989;DHT22;37008;52.210;21.112;2023-05-14T07:34:41;18.50;57.40
50989;DHT22;37008;52.210;21.112;2023-05-14T07:37:06;18.60;57.00
50989;DHT22;37008;52.210;21.112;2023-05-14T07:39:33;18.70;56.90
50989;DHT22;37008;52.210;21.112;2023-05-14T07:42:00;18.70;57.00
50989;DHT22;37008;52.210;21.112;2023-05-14T07:44:25;18.80;56.80
50989;DHT22;37008;52.210;21.112;2023-05-14T07:46:51;18.90;56.90
50989;DHT22;37008;52.210;21.112;2023-05-14T07:49:16;18.90;56.60
50989;DHT22;37008;52.210;21.112;2023-05-14T07:51:42;19.00;56.40
50989;DHT22;37008;52.210;21.112;2023-05-14T07:54:08;19.00;55.80
50989;DHT22;37008;52.210;21.112;2023-05-14T07:56:33;19.10;54.60
50989;DHT22;37008;52.210;21.112;2023-05-14T07:58:59;19.20;54.30
50989;DHT22;37008;52.210;21.112;2023-05-14T08:01:24;19.20;52.90
50989;DHT22;37008;52.210;21.112;2023-05-14T08:03:50;19.30;52.20
50989;DHT22;37008;52.210;21.112;2023-05-14T08:06:16;19.40;52.80
50989;DHT22;37008;52.210;21.112;2023-05-14T08:08:42;19.50;53.40
50989;DHT22;37008;52.210;21.112;2023-05-14T08:11:07;19.50;52.80
50989;DHT22;37008;52.210;21.112;2023-05-14T08:13:33;19.60;51.80
50989;DHT22;37008;52.210;21.112;2023-05-14T08:15:58;19.70;51.20
50989;DHT22;37008;52.210;21.112;2023-05-14T08:18:24;19.80;49.40
50989;DHT22;37008;52.210;21.112;2023-05-14T08:20:50;19.90;48.80
50989;DHT22;37008;52.210;21.112;2023-05-14T08:23:16;20.00;47.90
50989;DHT22;37008;52.210;21.112;2023-05-14T08:25:41;20.00;46.60
50989;DHT22;37008;52.210;21.112;2023-05-14T08:28:07;20.10;47.50
50989;DHT22;37008;52.210;21.112;2023-05-14T08:30:32;20.10;47.50
50989;DHT22;37008;52.210;21.112;2023-05-14T08:32:58;20.20;46.80
50989;DHT22;37008;52.210;21.112;2023-05-14T08:35:24;20.30;47.00
50989;DHT22;37008;52.210;21.112;2023-05-14T08:37:50;20.30;46.80
50989;DHT22;37008;52.210;21.112;2023-05-14T08:40:16;20.40;46.00
50989;DHT22;37008;52.210;21.112;2023-05-14T08:42:43;20.40;44.50
50989;DHT22;37008;52.210;21.112;2023-05-14T08:45:15;20.50;44.50
50989;DHT22;37008;52.210;21.112;2023-05-14T08:47:45;20.50;44.50
50989;DHT22;37008;52.210;21.112;2023-05-14T08:50:11;20.50;45.30
50989;DHT22;37008;52.210;21.112;2023-05-14T08:52:37;20.50;45.60
50989;DHT22;37008;52.210;21.112;2023-05-14T08:55:04;20.60;44.40
50989;DHT22;37008;52.210;21.112;2023-05-14T08:57:34;20.70;43.40
50989;DHT22;37008;52.210;21.112;2023-05-14T09:00:02;20.80;43.30
50989;DHT22;37008;52.210;21.112;2023-05-14T09:02:33;20.80;41.10
50989;DHT22;37008;52.210;21.112;2023-05-14T09:05:06;20.80;41.60
50989;DHT22;37008;52.210;21.112;2023-05-14T09:07:33;20.80;41.00
50989;DHT22;37008;52.210;21.112;2023-05-14T09:10:00;20.70;41.90
50989;DHT22;37008;52.210;21.112;2023-05-14T09:12:26;20.80;42.40
50989;DHT22;37008;52.210;21.112;2023-05-14T09:14:52;20.80;42.80
50989;DHT22;37008;52.210;21.112;2023-05-14T09:17:18;21.00;43.40
50989;DHT22;37008;52.210;21.112;2023-05-14T09:19:45;21.10;43.80
50989;DHT22;37008;52.210;21.112;2023-05-14T09:22:15;21.10;43.20
50989;DHT22;37008;52.210;21.112;2023-05-14T09:24:41;21.20;43.30
50989;DHT22;37008;52.210;21.112;2023-05-14T09:27:08;21.20;42.50
50989;DHT22;37008;52.210;21.112;2023-05-14T09:29:34;21.30;41.90
50989;DHT22;37008;52.210;21.112;2023-05-14T09:32:01;21.30;41.50
50989;DHT22;37008;52.210;21.112;2023-05-14T09:34:31;21.30;41.60
50989;DHT22;37008;52.210;21.112;2023-05-14T09:37:05;21.30;40.30
50989;DHT22;37008;52.210;21.112;2023-05-14T09:39:32;21.40;40.90
50989;DHT22;37008;52.210;21.112;2023-05-14T09:41:57;21.40;41.10
50989;DHT22;37008;52.210;21.112;2023-05-14T09:44:23;21.40;40.90
50989;DHT22;37008;52.210;21.112;2023-05-14T09:46:51;21.50;39.90
50989;DHT22;37008;52.210;21.112;2023-05-14T09:49:17;21.50;40.90
50989;DHT22;37008;52.210;21.112;2023-05-14T09:51:42;21.60;41.00
50989;DHT22;37008;52.210;21.112;2023-05-14T09:54:08;21.70;40.80
50989;DHT22;37008;52.210;21.112;2023-05-14T09:56:35;21.70;41.30
50989;DHT22;37008;52.210;21.112;2023-05-14T09:59:01;21.80;41.50
50989;DHT22;37008;52.210;21.112;2023-05-14T10:01:28;21.90;41.70
50989;DHT22;37008;52.210;21.112;2023-05-14T10:03:54;22.00;41.10
50989;DHT22;37008;52.210;21.112;2023-05-14T10:06:24;22.20;40.30
50989;DHT22;37008;52.210;21.112;2023-05-14T10:08:53;22.20;40.20
50989;DHT22;37008;52.210;21.112;2023-05-14T10:11:19;22.30;40.90
50989;DHT22;37008;52.210;21.112;2023-05-14T10:13:56;22.40;39.50
50989;DHT22;37008;52.210;21.112;2023-05-14T10:16:35;22.40;39.30
50989;DHT22;37008;52.210;21.112;2023-05-14T10:19:08;22.50;39.30
50989;DHT22;37008;52.210;21.112;2023-05-14T10:21:35;22.60;39.30
50989;DHT22;37008;52.210;21.112;2023-05-14T10:24:05;22.50;39.00
50989;DHT22;37008;52.210;21.112;2023-05-14T10:26:38;22.30;38.10
50989;DHT22;37008;52.210;21.112;2023-05-14T10:29:05;22.30;38.80
50989;DHT22;37008;52.210;21.112;2023-05-14T10:31:48;22.30;37.50
50989;DHT22;37008;52.210;21.112;2023-05-14T10:34:40;22.50;39.00
50989;DHT22;37008;52.210;21.112;2023-05-14T10:37:09;22.60;39.20
50989;DHT22;37008;52.210;21.112;2023-05-14T10:39:51;22.50;38.70
50989;DHT22;37008;52.210;21.112;2023-05-14T10:42:33;22.40;38.80
50989;DHT22;37008;52.210;21.112;2023-05-14T10:45:05;22.50;39.10
50989;DHT22;37008;52.210;21.112;2023-05-14T10:47:43;22.60;39.70
50989;DHT22;37008;52.210;21.112;2023-05-14T10:50:12;22.70;40.10
50989;DHT22;37008;52.210;21.112;2023-05-14T10:52:43;22.70;39.30
50989;DHT22;37008;52.210;21.112;2023-05-14T10:55:12;22.70;37.60
50989;DHT22;37008;52.210;21.112;2023-05-14T10:57:39;22.70;38.00
50989;DHT22;37008;52.210;21.112;2023-05-14T11:00:06;22.40;38.50
50989;DHT22;37008;52.210;21.112;2023-05-14T11:02:35;22.30;38.60
50989;DHT22;37008;52.210;21.112;2023-05-14T11:05:14;22.10;38.90
50989;DHT22;37008;52.210;21.112;2023-05-14T11:10:13;22.30;39.80
50989;DHT22;37008;52.210;21.112;2023-05-14T11:12:47;22.50;40.70
50989;DHT22;37008;52.210;21.112;2023-05-14T11:15:16;22.80;39.00
50989;DHT22;37008;52.210;21.112;2023-05-14T11:17:42;23.00;40.10
50989;DHT22;37008;52.210;21.112;2023-05-14T11:20:09;23.30;39.60
50989;DHT22;37008;52.210;21.112;2023-05-14T11:22:37;23.50;39.00
50989;DHT22;37008;52.210;21.112;2023-05-14T11:25:04;23.60;38.20
50989;DHT22;37008;52.210;21.112;2023-05-14T11:27:37;23.60;36.60
50989;DHT22;37008;52.210;21.112;2023-05-14T11:30:03;23.50;36.10
50989;DHT22;37008;52.210;21.112;2023-05-14T11:32:31;23.40;36.90
50989;DHT22;37008;52.210;21.112;2023-05-14T11:34:57;23.40;37.00
50989;DHT22;37008;52.210;21.112;2023-05-14T11:37:23;23.30;36.30
50989;DHT22;37008;52.210;21.112;2023-05-14T11:39:50;23.20;36.00
50989;DHT22;37008;52.210;21.112;2023-05-14T11:42:17;23.10;36.40
50989;DHT22;37008;52.210;21.112;2023-05-14T11:44:46;23.10;36.70
50989;DHT22;37008;52.210;21.112;2023-05-14T11:47:13;23.20;36.80
50989;DHT22;37008;52.210;21.112;2023-05-14T11:49:39;23.30;36.70
50989;DHT22;37008;52.210;21.112;2023-05-14T11:52:06;23.30;36.50
50989;DHT22;37008;52.210;21.112;2023-05-14T11:54:33;23.40;35.60
50989;DHT22;37008;52.210;21.112;2023-05-14T11:57:01;23.40;34.80
50989;DHT22;37008;52.210;21.112;2023-05-14T11:59:28;23.40;34.20
50989;DHT22;37008;52.210;21.112;2023-05-14T12:01:55;23.30;34.30
50989;DHT22;37008;52.210;21.112;2023-05-14T12:04:21;23.30;35.30
50989;DHT22;37008;52.210;21.112;2023-05-14T12:06:51;23.20;34.70
50989;DHT22;37008;52.210;21.112;2023-05-14T12:09:18;23.20;35.20
50989;DHT22;37008;52.210;21.112;2023-05-14T12:11:44;23.20;34.90
50989;DHT22;37008;52.210;21.112;2023-05-14T12:14:20;23.10;34.50
50989;DHT22;37008;52.210;21.112;2023-05-14T12:16:47;23.10;34.60
50989;DHT22;37008;52.210;21.112;2023-05-14T12:19:17;23.10;35.10
50989;DHT22;37008;52.210;21.112;2023-05-14T12:21:44;23.10;36.20
50989;DHT22;37008;52.210;21.112;2023-05-14T12:24:16;23.20;37.00
50989;DHT22;37008;52.210;21.112;2023-05-14T12:26:46;23.30;36.00
50989;DHT22;37008;52.210;21.112;2023-05-14T12:29:13;23.40;35.80
50989;DHT22;37008;52.210;21.112;2023-05-14T12:31:47;23.40;35.80
50989;DHT22;37008;52.210;21.112;2023-05-14T12:34:13;23.50;36.40
50989;DHT22;37008;52.210;21.112;2023-05-14T12:36:39;23.60;34.40
50989;DHT22;37008;52.210;21.112;2023-05-14T12:39:04;23.70;34.10
50989;DHT22;37008;52.210;21.112;2023-05-14T12:41:31;23.90;35.00
50989;DHT22;37008;52.210;21.112;2023-05-14T12:43:57;24.00;36.00
50989;DHT22;37008;52.210;21.112;2023-05-14T12:46:25;24.10;34.70
50989;DHT22;37008;52.210;21.112;2023-05-14T12:48:55;24.10;33.60
50989;DHT22;37008;52.210;21.112;2023-05-14T12:51:21;24.00;33.30
50989;DHT22;37008;52.210;21.112;2023-05-14T12:53:46;23.80;33.60
50989;DHT22;37008;52.210;21.112;2023-05-14T12:56:12;23.70;33.60
50989;DHT22;37008;52.210;21.112;2023-05-14T12:58:38;23.60;34.50
50989;DHT22;37008;52.210;21.112;2023-05-14T13:01:04;23.40;34.60
50989;DHT22;37008;52.210;21.112;2023-05-14T13:03:30;23.20;33.30
50989;DHT22;37008;52.210;21.112;2023-05-14T13:05:56;23.00;33.40
50989;DHT22;37008;52.210;21.112;2023-05-14T13:08:22;22.80;33.80
50989;DHT22;37008;52.210;21.112;2023-05-14T13:10:50;22.60;34.60
50989;DHT22;37008;52.210;21.112;2023-05-14T13:13:16;22.40;34.70
50989;DHT22;37008;52.210;21.112;2023-05-14T13:15:42;22.40;35.40
50989;DHT22;37008;52.210;21.112;2023-05-14T13:18:07;22.50;36.50
50989;DHT22;37008;52.210;21.112;2023-05-14T13:20:33;22.60;36.90
50989;DHT22;37008;52.210;21.112;2023-05-14T13:22:59;22.70;36.20
50989;DHT22;37008;52.210;21.112;2023-05-14T13:25:25;22.80;35.70
50989;DHT22;37008;52.210;21.112;2023-05-14T13:27:51;22.90;36.60
50989;DHT22;37008;52.210;21.112;2023-05-14T13:30:18;23.00;36.90
50989;DHT22;37008;52.210;21.112;2023-05-14T13:32:44;22.90;36.90
50989;DHT22;37008;52.210;21.112;2023-05-14T13:35:10;22.70;35.60
50989;DHT22;37008;52.210;21.112;2023-05-14T13:37:36;22.50;35.20
50989;DHT22;37008;52.210;21.112;2023-05-14T13:40:02;22.40;34.50
50989;DHT22;37008;52.210;21.112;2023-05-14T13:42:37;22.40;35.20
50989;DHT22;37008;52.210;21.112;2023-05-14T13:45:06;22.70;36.60
50989;DHT22;37008;52.210;21.112;2023-05-14T13:47:32;22.90;36.10
50989;DHT22;37008;52.210;21.112;2023-05-14T13:49:58;23.30;36.40
50989;DHT22;37008;52.210;21.112;2023-05-14T13:52:24;23.70;36.20
50989;DHT22;37008;52.210;21.112;2023-05-14T13:54:49;24.00;35.90
50989;DHT22;37008;52.210;21.112;2023-05-14T13:57:15;24.30;36.40
50989;DHT22;37008;52.210;21.112;2023-05-14T13:59:41;24.40;36.10
50989;DHT22;37008;52.210;21.112;2023-05-14T14:02:07;24.60;35.30
50989;DHT22;37008;52.210;21.112;2023-05-14T14:04:33;24.50;33.60
50989;DHT22;37008;52.210;21.112;2023-05-14T14:06:59;24.50;32.40
50989;DHT22;37008;52.210;21.112;2023-05-14T14:09:24;24.70;33.10
50989;DHT22;37008;52.210;21.112;2023-05-14T14:11:50;24.90;34.20
50989;DHT22;37008;52.210;21.112;2023-05-14T14:14:16;25.80;33.40
50989;DHT22;37008;52.210;21.112;2023-05-14T14:16:43;26.90;32.00
50989;DHT22;37008;52.210;21.112;2023-05-14T14:19:08;27.80;30.10
50989;DHT22;37008;52.210;21.112;2023-05-14T14:21:34;28.70;29.70
50989;DHT22;37008;52.210;21.112;2023-05-14T14:24:01;29.40;29.60
50989;DHT22;37008;52.210;21.112;2023-05-14T14:26:27;29.90;29.10
50989;DHT22;37008;52.210;21.112;2023-05-14T14:28:54;30.40;29.10
50989;DHT22;37008;52.210;21.112;2023-05-14T14:31:20;30.80;28.40
50989;DHT22;37008;52.210;21.112;2023-05-14T14:33:46;31.20;26.70
50989;DHT22;37008;52.210;21.112;2023-05-14T14:36:11;31.30;26.70
50989;DHT22;37008;52.210;21.112;2023-05-14T14:38:37;31.70;26.80
50989;DHT22;37008;52.210;21.112;2023-05-14T14:41:06;32.10;26.40
50989;DHT22;37008;52.210;21.112;2023-05-14T14:43:33;32.20;25.10
50989;DHT22;37008;52.210;21.112;2023-05-14T14:45:59;32.00;24.30
50989;DHT22;37008;52.210;21.112;2023-05-14T14:48:32;31.80;24.90
50989;DHT22;37008;52.210;21.112;2023-05-14T14:51:02;31.70;25.60
50989;DHT22;37008;52.210;21.112;2023-05-14T14:53:31;31.70;25.40
50989;DHT22;37008;52.210;21.112;2023-05-14T14:55:57;31.70;25.20
50989;DHT22;37008;52.210;21.112;2023-05-14T14:58:23;31.90;25.60
50989;DHT22;37008;52.210;21.112;2023-05-14T15:00:52;32.10;25.80
50989;DHT22;37008;52.210;21.112;2023-05-14T15:03:18;32.10;25.20
50989;DHT22;37008;52.210;21.112;2023-05-14T15:05:44;32.30;25.10
50989;DHT22;37008;52.210;21.112;2023-05-14T15:08:10;32.40;25.20
50989;DHT22;37008;52.210;21.112;2023-05-14T15:10:36;32.50;25.30
50989;DHT22;37008;52.210;21.112;2023-05-14T15:13:04;32.40;24.50
50989;DHT22;37008;52.210;21.112;2023-05-14T15:15:31;32.40;24.50
50989;DHT22;37008;52.210;21.112;2023-05-14T15:17:57;32.20;23.90
50989;DHT22;37008;52.210;21.112;2023-05-14T15:20:23;31.70;24.40